sensor_id;sensor_type;location;lat;lon;timestamp;temperature;humidity
26537;DHT22;14204;51.262;5.488;2023-11-19T00:00:36;14.00;99.90
26537;DHT22;14204;51.262;5.488;2023-11-19T00:03:01;13.90;99.90
26537;DHT22;14204;51.262;5.488;2023-11-19T00:05:27;13.90;99.90
26537;DHT22;14204;51.262;5.488;2023-11-19T00:07:53;14.00;99.90
26537;DHT22;14204;51.262;5.488;2023-11-19T00:10:19;13.90;99.90
26537;DHT22;14204;51.262;5.488;2023-11-19T00:12:46;14.00;99.90
26537;DHT22;14204;51.262;5.488;2023-11-19T00:15:13;13.90;99.90
26537;DHT22;14204;51.262;5.488;2023-11-19T00:17:42;14.00;99.90
26537;DHT22;14204;51.262;5.488;2023-11-19T00:20:12;14.10;99.90
26537;DHT22;14204;51.262;5.488;2023-11-19T00:22:38;14.10;99.90
26537;DHT22;14204;51.262;5.488;2023-11-19T00:25:04;14.10;99.90
26537;DHT22;14204;51.262;5.488;2023-11-19T00:27:31;14.10;99.90
26537;DHT22;14204;51.262;5.488;2023-11-19T00:29:57;14.10;99.90
26537;DHT22;14204;51.262;5.488;2023-11-19T00:32:23;14.10;99.90
26537;DHT22;14204;51.262;5.488;2023-11-19T00:34:48;14.10;99.90
26537;DHT22;14204;51.262;5.488;2023-11-19T00:37:15;14.10;99.90
26537;DHT22;14204;51.262;5.488;2023-11-19T00:39:41;14.10;99.90
26537;DHT22;14204;51.262;5.488;2023-11-19T00:42:07;14.00;99.90
26537;DHT22;14204;51.262;5.488;2023-11-19T00:44:33;14.10;99.90
26537;DHT22;14204;51.262;5.488;2023-11-19T00:46:59;14.10;99.90
26537;DHT22;14204;51.262;5.488;2023-11-19T00:49:25;14.00;99.90
26537;DHT22;14204;51.262;5.488;2023-11-19T00:51:51;14.10;99.90
26537;DHT22;14204;51.262;5.488;2023-11-19T00:54:17;14.10;99.90
26537;DHT22;14204;51.262;5.488;2023-11-19T00:56:42;14.10;99.90
26537;DHT22;14204;51.262;5.488;2023-11-19T00:59:08;14.10;99.90
26537;DHT22;14204;51.262;5.488;2023-11-19T01:01:34;14.10;99.90
26537;DHT22;14204;51.262;5.488;2023-11-19T01:03:59;14.10;99.90
26537;DHT22;14204;51.262;5.488;2023-11-19T01:06:29;14.10;99.90
26537;DHT22;14204;51.262;5.488;2023-11-19T01:08:55;14.10;99.90
26537;DHT22;14204;51.262;5.488;2023-11-19T01:11:22;14.10;99.90
26537;DHT22;14204;51.262;5.488;2023-11-19T01:13:48;14.10;99.90
26537;DHT22;14204;51.262;5.488;2023-11-19T01:16:15;14.10;99.90
26537;DHT22;14204;51.262;5.488;2023-11-19T01:18:41;14.10;99.90
26537;DHT22;14204;51.262;5.488;2023-11-19T01:21:07;14.10;99.90
26537;DHT22;14204;51.262;5.488;2023-11-19T01:23:32;14.20;99.90
26537;DHT22;14204;51.262;5.488;2023-11-19T01:25:59;14.10;99.90
26537;DHT22;14204;51.262;5.488;2023-11-19T01:28:25;14.10;99.90
26537;DHT22;14204;51.262;5.488;2023-11-19T01:30:51;14.10;99.90
26537;DHT22;14204;51.262;5.488;2023-11-19T01:33:17;14.10;99.90
26537;DHT22;14204;51.262;5.488;2023-11-19T01:35:42;14.10;99.90
26537;DHT22;14204;51.262;5.488;2023-11-19T01:38:08;14.10;99.90
26537;DHT22;14204;51.262;5.488;2023-11-19T01:40:34;14.10;99.90
26537;DHT22;14204;51.262;5.488;2023-11-19T01:43:02;14.10;99.90
26537;DHT22;14204;51.262;5.488;2023-11-19T01:45:29;14.20;99.90
26537;DHT22;14204;51.262;5.488;2023-11-19T01:47:57;14.10;99.90
26537;DHT22;14204;51.262;5.488;2023-11-19T01:50:23;14.10;99.90
26537;DHT22;14204;51.262;5.488;2023-11-19T01:52:53;14.10;99.90
26537;DHT22;14204;51.262;5.488;2023-11-19T01:55:20;14.00;99.90
26537;DHT22;14204;51.262;5.488;2023-11-19T01:57:47;14.10;99.90
26537;DHT22;14204;51.262;5.488;2023-11-19T02:00:13;14.10;99.90
26537;DHT22;14204;51.262;5.488;2023-11-19T02:02:40;14.10;99.90
26537;DHT22;14204;51.262;5.488;2023-11-19T02:05:06;14.00;99.90
26537;DHT22;14204;51.262;5.488;2023-11-19T02:07:32;14.00;99.90
26537;DHT22;14204;51.262;5.488;2023-11-19T02:09:58;14.00;99.90
26537;DHT22;14204;51.262;5.488;2023-11-19T02:12:26;13.90;99.90
26537;DHT22;14204;51.262;5.488;2023-11-19T02:14:54;14.00;99.90
26537;DHT22;14204;51.262;5.488;2023-11-19T02:17:27;14.00;99.90
26537;DHT22;14204;51.262;5.488;2023-11-19T02:19:53;13.90;99.90
26537;DHT22;14204;51.262;5.488;2023-11-19T02:22:19;13.90;99.90
26537;DHT22;14204;51.262;5.488;2023-11-19T02:24:47;13.90;99.90
26537;DHT22;14204;51.262;5.488;2023-11-19T02:27:24;13.90;99.90
26537;DHT22;14204;51.262;5.488;2023-11-19T02:29:51;13.90;99.90
26537;DHT22;14204;51.262;5.488;2023-11-19T02:32:17;13.90;99.90
26537;DHT22;14204;51.262;5.488;2023-11-19T02:34:43;13.90;99.90
26537;DHT22;14204;51.262;5.488;2023-11-19T02:37:08;14.00;99.90
26537;DHT22;14204;51.262;5.488;2023-11-19T02:39:35;14.00;99.90
26537;DHT22;14204;51.262;5.488;2023-11-19T02:42:02;13.90;99.90
26537;DHT22;14204;51.262;5.488;2023-11-19T02:44:28;13.90;99.90
26537;DHT22;14204;51.262;5.488;2023-11-19T02:46:55;13.90;99.90
26537;DHT22;14204;51.262;5.488;2023-11-19T02:49:24;13.80;99.90
26537;DHT22;14204;51.262;5.488;2023-11-19T02:51:50;13.70;99.90
26537;DHT22;14204;51.262;5.488;2023-11-19T02:54:16;13.70;99.90
26537;DHT22;14204;51.262;5.488;2023-11-19T02:56:45;13.80;99.90
26537;DHT22;14204;51.262;5.488;2023-11-19T02:59:13;13.60;99.90
26537;DHT22;14204;51.262;5.488;2023-11-19T03:01:52;13.60;99.90
26537;DHT22;14204;51.262;5.488;2023-11-19T03:04:19;13.70;99.90
26537;DHT22;14204;51.262;5.488;2023-11-19T03:06:46;13.70;99.90
26537;DHT22;14204;51.262;5.488;2023-11-19T03:09:12;13.60;99.90
26537;DHT22;14204;51.262;5.488;2023-11-19T03:11:38;13.70;99.90
26537;DHT22;14204;51.262;5.488;2023-11-19T03:14:04;13.60;99.90
26537;DHT22;14204;51.262;5.488;2023-11-19T03:16:30;13.60;99.90
26537;DHT22;14204;51.262;5.488;2023-11-19T03:18:55;13.60;99.90
26537;DHT22;14204;51.262;5.488;2023-11-19T03:21:31;13.60;99.90
26537;DHT22;14204;51.262;5.488;2023-11-19T03:23:57;13.70;99.90
26537;DHT22;14204;51.262;5.488;2023-11-19T03:26:26;13.70;99.90
26537;DHT22;14204;51.262;5.488;2023-11-19T03:28:53;13.70;99.90
26537;DHT22;14204;51.262;5.488;2023-11-19T03:31:18;13.60;99.90
26537;DHT22;14204;51.262;5.488;2023-11-19T03:33:44;13.60;99.90
26537;DHT22;14204;51.262;5.488;2023-11-19T03:36:10;13.50;99.90
26537;DHT22;14204;51.262;5.488;2023-11-19T03:38:36;13.60;99.90
26537;DHT22;14204;51.262;5.488;2023-11-19T03:41:10;13.50;99.90
26537;DHT22;14204;51.262;5.488;2023-11-19T03:43:37;13.50;99.90
26537;DHT22;14204;51.262;5.488;2023-11-19T03:46:02;13.60;99.90
26537;DHT22;14204;51.262;5.488;2023-11-19T03:48:28;13.60;99.90
26537;DHT22;14204;51.262;5.488;2023-11-19T03:50:53;13.70;99.90
26537;DHT22;14204;51.262;5.488;2023-11-19T03:53:19;13.60;99.90
26537;DHT22;14204;51.262;5.488;2023-11-19T03:55:45;13.60;99.90
26537;DHT22;14204;51.262;5.488;2023-11-19T03:58:11;13.50;99.90
26537;DHT22;14204;51.262;5.488;2023-11-19T04:00:37;13.50;99.90
26537;DHT22;14204;51.262;5.488;2023-11-19T04:03:03;13.40;99.90
26537;DHT22;14204;51.262;5.488;2023-11-19T04:05:28;13.40;99.90
26537;DHT22;14204;51.262;5.488;2023-11-19T04:07:54;13.40;99.90
26537;DHT22;14204;51.262;5.488;2023-11-19T04:10:20;13.50;99.90
26537;DHT22;14204;51.262;5.488;2023-11-19T04:12:47;13.50;99.90
26537;DHT22;14204;51.262;5.488;2023-11-19T04:15:14;13.60;99.90
26537;DHT22;14204;51.262;5.488;2023-11-19T04:17:39;13.50;99.90
26537;DHT22;14204;51.262;5.488;2023-11-19T04:20:06;13.50;99.90
26537;DHT22;14204;51.262;5.488;2023-11-19T04:22:36;13.50;99.90
26537;DHT22;14204;51.262;5.488;2023-11-19T04:25:01;13.50;99.90
26537;DHT22;14204;51.262;5.488;2023-11-19T04:27:27;13.50;99.90
26537;DHT22;14204;51.262;5.488;2023-11-19T04:29:53;13.40;99.90
26537;DHT22;14204;51.262;5.488;2023-11-19T04:32:18;13.40;99.90
26537;DHT22;14204;51.262;5.488;2023-11-19T04:34:44;13.40;99.90
26537;DHT22;14204;51.262;5.488;2023-11-19T04:37:10;13.40;99.90
26537;DHT22;14204;51.262;5.488;2023-11-19T04:39:36;13.40;99.90
26537;DHT22;14204;51.262;5.488;2023-11-19T04:42:03;13.40;99.90
26537;DHT22;14204;51.262;5.488;2023-11-19T04:44:30;13.40;99.90
26537;DHT22;14204;51.262;5.488;2023-11-19T04:46:56;13.40;99.90
26537;DHT22;14204;51.262;5.488;2023-11-19T04:49:21;13.40;99.90
26537;DHT22;14204;51.262;5.488;2023-11-19T04:51:47;13.50;99.90
26537;DHT22;14204;51.262;5.488;2023-11-19T04:54:13;13.40;99.90
26537;DHT22;14204;51.262;5.488;2023-11-19T04:56:39;13.40;99.90
26537;DHT22;14204;51.262;5.488;2023-11-19T04:59:06;13.40;99.90
26537;DHT22;14204;51.262;5.488;2023-11-19T05:01:35;13.50;99.90
26537;DHT22;14204;51.262;5.488;2023-11-19T05:04:01;13.50;99.90
26537;DHT22;14204;51.262;5.488;2023-11-19T05:06:30;13.50;99.90
26537;DHT22;14204;51.262;5.488;2023-11-19T05:08:58;13.50;99.90
26537;DHT22;14204;51.262;5.488;2023-11-19T05:11:24;13.40;99.90
26537;DHT22;14204;51.262;5.488;2023-11-19T05:13:50;13.40;99.90
26537;DHT22;14204;51.262;5.488;2023-11-19T05:16:16;13.40;99.90
26537;DHT22;14204;51.262;5.488;2023-11-19T05:18:43;13.40;99.90
26537;DHT22;14204;51.262;5.488;2023-11-19T05:21:09;13.40;99.90
26537;DHT22;14204;51.262;5.488;2023-11-19T05:23:35;13.30;99.90
26537;DHT22;14204;51.262;5.488;2023-11-19T05:26:01;13.30;99.90
26537;DHT22;14204;51.262;5.488;2023-11-19T05:28:27;13.30;99.90
26537;DHT22;14204;51.262;5.488;2023-11-19T05:30:52;13.30;99.90
26537;DHT22;14204;51.262;5.488;2023-11-19T05:33:18;13.30;99.90
26537;DHT22;14204;51.262;5.488;2023-11-19T05:35:44;13.30;99.90
26537;DHT22;14204;51.262;5.488;2023-11-19T05:38:09;13.20;99.90
26537;DHT22;14204;51.262;5.488;2023-11-19T05:40:35;13.20;99.90
26537;DHT22;14204;51.262;5.488;2023-11-19T05:43:01;13.20;99.90
26537;DHT22;14204;51.262;5.488;2023-11-19T05:45:27;13.10;99.90
26537;DHT22;14204;51.262;5.488;2023-11-19T05:47:53;13.10;99.90
26537;DHT22;14204;51.262;5.488;2023-11-19T05:50:18;13.00;99.90
26537;DHT22;14204;51.262;5.488;2023-11-19T05:52:46;13.00;99.90
26537;DHT22;14204;51.262;5.488;2023-11-19T05:55:12;13.10;99.90
26537;DHT22;14204;51.262;5.488;2023-11-19T05:57:38;13.00;99.90
26537;DHT22;14204;51.262;5.488;2023-11-19T06:00:05;12.90;99.90
26537;DHT22;14204;51.262;5.488;2023-11-19T06:02:36;13.00;99.90
26537;DHT22;14204;51.262;5.488;2023-11-19T06:05:04;12.90;99.90
26537;DHT22;14204;51.262;5.488;2023-11-19T06:07:31;12.90;99.90
26537;DHT22;14204;51.262;5.488;2023-11-19T06:09:57;12.80;99.90
26537;DHT22;14204;51.262;5.488;2023-11-19T06:12:23;12.80;99.90
26537;DHT22;14204;51.262;5.488;2023-11-19T06:14:48;12.80;99.90
26537;DHT22;14204;51.262;5.488;2023-11-19T06:17:14;12.80;99.90
26537;DHT22;14204;51.262;5.488;2023-11-19T06:19:40;12.80;99.90
26537;DHT22;14204;51.262;5.488;2023-11-19T06:22:05;12.80;99.90
26537;DHT22;14204;51.262;5.488;2023-11-19T06:24:32;12.70;99.90
26537;DHT22;14204;51.262;5.488;2023-11-19T06:26:57;12.80;99.90
26537;DHT22;14204;51.262;5.488;2023-11-19T06:29:23;12.70;99.90
26537;DHT22;14204;51.262;5.488;2023-11-19T06:31:50;12.70;99.90
26537;DHT22;14204;51.262;5.488;2023-11-19T06:34:15;12.60;99.90
26537;DHT22;14204;51.262;5.488;2023-11-19T06:36:41;12.60;99.90
26537;DHT22;14204;51.262;5.488;2023-11-19T06:39:09;12.60;99.90
26537;DHT22;14204;51.262;5.488;2023-11-19T06:41:36;12.50;99.90
26537;DHT22;14204;51.262;5.488;2023-11-19T06:44:04;12.50;99.90
26537;DHT22;14204;51.262;5.488;2023-11-19T06:46:30;12.50;99.90
26537;DHT22;14204;51.262;5.488;2023-11-19T06:48:56;12.60;99.90
26537;DHT22;14204;51.262;5.488;2023-11-19T06:51:22;12.50;99.90
26537;DHT22;14204;51.262;5.488;2023-11-19T06:53:50;12.50;99.90
26537;DHT22;14204;51.262;5.488;2023-11-19T06:56:23;12.50;99.90
26537;DHT22;14204;51.262;5.488;2023-11-19T06:58:49;12.40;99.90
26537;DHT22;14204;51.262;5.488;2023-11-19T07:01:16;12.40;99.90
26537;DHT22;14204;51.262;5.488;2023-11-19T07:03:42;12.50;99.90
26537;DHT22;14204;51.262;5.488;2023-11-19T07:06:07;12.50;99.90
26537;DHT22;14204;51.262;5.488;2023-11-19T07:08:34;12.40;99.90
26537;DHT22;14204;51.262;5.488;2023-11-19T07:11:00;12.40;99.90
26537;DHT22;14204;51.262;5.488;2023-11-19T07:13:25;12.40;99.90
26537;DHT22;14204;51.262;5.488;2023-11-19T07:15:53;12.40;99.90
26537;DHT22;14204;51.262;5.488;2023-11-19T07:18:21;12.40;99.90
26537;DHT22;14204;51.262;5.488;2023-11-19T07:20:49;12.40;99.90
26537;DHT22;14204;51.262;5.488;2023-11-19T07:23:15;12.40;99.90
26537;DHT22;14204;51.262;5.488;2023-11-19T07:25:44;12.30;99.90
26537;DHT22;14204;51.262;5.488;2023-11-19T07:28:15;12.40;99.90
26537;DHT22;14204;51.262;5.488;2023-11-19T07:30:42;12.30;99.90
26537;DHT22;14204;51.262;5.488;2023-11-19T07:33:08;12.30;99.90
26537;DHT22;14204;51.262;5.488;2023-11-19T07:35:33;12.40;99.90
26537;DHT22;14204;51.262;5.488;2023-11-19T07:37:59;12.40;99.90
26537;DHT22;14204;51.262;5.488;2023-11-19T07:40:25;12.40;99.90
26537;DHT22;14204;51.262;5.488;2023-11-19T07:42:50;12.40;99.90
26537;DHT22;14204;51.262;5.488;2023-11-19T07:45:17;12.40;99.90
26537;DHT22;14204;51.262;5.488;2023-11-19T07:47:43;12.50;99.90
26537;DHT22;14204;51.262;5.488;2023-11-19T07:50:11;12.50;99.90
26537;DHT22;14204;51.262;5.488;2023-11-19T07:52:39;12.50;99.90
26537;DHT22;14204;51.262;5.488;2023-11-19T07:55:05;12.40;99.90
26537;DHT22;14204;51.262;5.488;2023-11-19T07:57:31;12.40;99.90
26537;DHT22;14204;51.262;5.488;2023-11-19T08:00:00;12.50;99.90
26537;DHT22;14204;51.262;5.488;2023-11-19T08:02:27;12.50;99.90
26537;DHT22;14204;51.262;5.488;2023-11-19T08:04:52;12.50;99.90
26537;DHT22;14204;51.262;5.488;2023-11-19T08:07:23;12.50;99.90
26537;DHT22;14204;51.262;5.488;2023-11-19T08:09:48;12.50;99.90
26537;DHT22;14204;51.262;5.488;2023-11-19T08:12:14;12.50;99.90
26537;DHT22;14204;51.262;5.488;2023-11-19T08:14:41;12.60;99.90
26537;DHT22;14204;51.262;5.488;2023-11-19T08:17:07;12.60;99.90
26537;DHT22;14204;51.262;5.488;2023-11-19T08:19:32;12.60;99.90
26537;DHT22;14204;51.262;5.488;2023-11-19T08:21:58;12.60;99.90
26537;DHT22;14204;51.262;5.488;2023-11-19T08:24:24;12.60;99.90
26537;DHT22;14204;51.262;5.488;2023-11-19T08:26:49;12.60;99.90
26537;DHT22;14204;51.262;5.488;2023-11-19T08:29:15;12.70;99.90
26537;DHT22;14204;51.262;5.488;2023-11-19T08:31:42;12.70;99.90
26537;DHT22;14204;51.262;5.488;2023-11-19T08:34:08;12.80;99.90
26537;DHT22;14204;51.262;5.488;2023-11-19T08:36:37;12.70;99.90
26537;DHT22;14204;51.262;5.488;2023-11-19T08:39:03;12.70;99.90
26537;DHT22;14204;51.262;5.488;2023-11-19T08:41:29;12.80;99.90
26537;DHT22;14204;51.262;5.488;2023-11-19T08:43:54;12.80;99.90
26537;DHT22;14204;51.262;5.488;2023-11-19T08:46:20;12.90;99.90
26537;DHT22;14204;51.262;5.488;2023-11-19T08:48:45;12.70;99.90
26537;DHT22;14204;51.262;5.488;2023-11-19T08:51:12;12.80;99.90
26537;DHT22;14204;51.262;5.488;2023-11-19T08:53:38;12.90;99.90
26537;DHT22;14204;51.262;5.488;2023-11-19T08:56:04;13.00;99.90
26537;DHT22;14204;51.262;5.488;2023-11-19T08:58:29;13.00;99.90
26537;DHT22;14204;51.262;5.488;2023-11-19T09:00:56;13.00;99.90
26537;DHT22;14204;51.262;5.488;2023-11-19T09:03:22;13.10;99.90
26537;DHT22;14204;51.262;5.488;2023-11-19T09:05:47;13.10;99.90
26537;DHT22;14204;51.262;5.488;2023-11-19T09:08:13;13.20;99.90
26537;DHT22;14204;51.262;5.488;2023-11-19T09:10:39;13.20;99.90
26537;DHT22;14204;51.262;5.488;2023-11-19T09:13:04;13.20;99.90
26537;DHT22;14204;51.262;5.488;2023-11-19T09:15:30;13.30;99.90
26537;DHT22;14204;51.262;5.488;2023-11-19T09:17:56;13.30;99.90
26537;DHT22;14204;51.262;5.488;2023-11-19T09:20:22;13.40;99.90
26537;DHT22;14204;51.262;5.488;2023-11-19T09:22:48;13.50;99.90
26537;DHT22;14204;51.262;5.488;2023-11-19T09:25:13;13.40;99.90
26537;DHT22;14204;51.262;5.488;2023-11-19T09:27:43;13.50;99.90
26537;DHT22;14204;51.262;5.488;2023-11-19T09:30:09;13.50;99.90
26537;DHT22;14204;51.262;5.488;2023-11-19T09:32:35;13.50;99.90
26537;DHT22;14204;51.262;5.488;2023-11-19T09:35:01;13.60;99.90
26537;DHT22;14204;51.262;5.488;2023-11-19T09:37:28;13.70;99.90
26537;DHT22;14204;51.262;5.488;2023-11-19T09:39:54;13.70;99.90
26537;DHT22;14204;51.262;5.488;2023-11-19T09:42:19;13.70;99.90
26537;DHT22;14204;51.262;5.488;2023-11-19T09:44:47;13.80;99.90
26537;DHT22;14204;51.262;5.488;2023-11-19T09:47:14;13.80;99.90
26537;DHT22;14204;51.262;5.488;2023-11-19T09:49:42;13.80;99.90
26537;DHT22;14204;51.262;5.488;2023-11-19T09:52:09;13.80;99.90
26537;DHT22;14204;51.262;5.488;2023-11-19T09:54:35;13.90;99.90
26537;DHT22;14204;51.262;5.488;2023-11-19T09:57:01;13.90;99.90
26537;DHT22;14204;51.262;5.488;2023-11-19T09:59:30;14.00;99.90
26537;DHT22;14204;51.262;5.488;2023-11-19T10:01:59;13.90;99.90
26537;DHT22;14204;51.262;5.488;2023-11-19T10:04:25;14.00;99.90
26537;DHT22;14204;51.262;5.488;2023-11-19T10:06:54;14.00;99.90
26537;DHT22;14204;51.262;5.488;2023-11-19T10:09:20;14.20;99.90
26537;DHT22;14204;51.262;5.488;2023-11-19T10:11:46;14.20;99.90
26537;DHT22;14204;51.262;5.488;2023-11-19T10:14:13;14.20;99.90
26537;DHT22;14204;51.262;5.488;2023-11-19T10:16:40;14.20;99.90
26537;DHT22;14204;51.262;5.488;2023-11-19T10:19:06;14.20;99.90
26537;DHT22;14204;51.262;5.488;2023-11-19T10:21:35;14.30;99.90
26537;DHT22;14204;51.262;5.488;2023-11-19T10:24:01;14.40;99.90
26537;DHT22;14204;51.262;5.488;2023-11-19T10:26:27;14.50;99.90
26537;DHT22;14204;51.262;5.488;2023-11-19T10:28:53;14.40;99.90
26537;DHT22;14204;51.262;5.488;2023-11-19T10:31:20;14.40;99.90
26537;DHT22;14204;51.262;5.488;2023-11-19T10:33:51;14.40;99.90
26537;DHT22;14204;51.262;5.488;2023-11-19T10:36:17;14.40;99.90
26537;DHT22;14204;51.262;5.488;2023-11-19T10:38:56;14.40;99.90
26537;DHT22;14204;51.262;5.488;2023-11-19T10:41:32;14.40;99.90
26537;DHT22;14204;51.262;5.488;2023-11-19T10:43:58;14.40;99.90
26537;DHT22;14204;51.262;5.488;2023-11-19T10:46:39;14.30;99.90
26537;DHT22;14204;51.262;5.488;2023-11-19T10:49:06;14.30;99.90
26537;DHT22;14204;51.262;5.488;2023-11-19T10:51:32;14.30;99.90
26537;DHT22;14204;51.262;5.488;2023-11-19T10:54:03;14.30;99.90
26537;DHT22;14204;51.262;5.488;2023-11-19T10:56:33;14.20;99.90
26537;DHT22;14204;51.262;5.488;2023-11-19T10:59:02;14.30;99.90
26537;DHT22;14204;51.262;5.488;2023-11-19T11:01:48;14.30;99.90
26537;DHT22;14204;51.262;5.488;2023-11-19T11:04:22;14.30;99.90
26537;DHT22;14204;51.262;5.488;2023-11-19T11:06:49;14.40;99.90
26537;DHT22;14204;51.262;5.488;2023-11-19T11:09:16;14.30;99.90
26537;DHT22;14204;51.262;5.488;2023-11-19T11:11:46;14.40;99.90
26537;DHT22;14204;51.262;5.488;2023-11-19T11:14:13;14.40;99.90
26537;DHT22;14204;51.262;5.488;2023-11-19T11:16:46;14.40;99.90
26537;DHT22;14204;51.262;5.488;2023-11-19T11:19:15;14.40;99.90
26537;DHT22;14204;51.262;5.488;2023-11-19T11:21:45;14.50;99.90
26537;DHT22;14204;51.262;5.488;2023-11-19T11:32:59;14.30;99.90
26537;DHT22;14204;51.262;5.488;2023-11-19T11:35:49;14.40;99.90
26537;DHT22;14204;51.262;5.488;2023-11-19T11:38:22;14.30;99.90
26537;DHT22;14204;51.262;5.488;2023-11-19T11:41:19;14.30;99.90
26537;DHT22;14204;51.262;5.488;2023-11-19T11:43:52;14.20;99.90
26537;DHT22;14204;51.262;5.488;2023-11-19T11:49:03;14.20;99.90
26537;DHT22;14204;51.262;5.488;2023-11-19T11:54:10;14.30;99.90
26537;DHT22;14204;51.262;5.488;2023-11-19T11:56:39;14.30;99.90
26537;DHT22;14204;51.262;5.488;2023-11-19T11:59:18;14.20;99.90
26537;DHT22;14204;51.262;5.488;2023-11-19T12:02:04;14.20;99.90
26537;DHT22;14204;51.262;5.488;2023-11-19T12:04:37;14.20;99.90
26537;DHT22;14204;51.262;5.488;2023-11-19T12:07:13;14.30;99.90
26537;DHT22;14204;51.262;5.488;2023-11-19T12:09:45;14.30;99.90
26537;DHT22;14204;51.262;5.488;2023-11-19T12:12:19;14.20;99.90
26537;DHT22;14204;51.262;5.488;2023-11-19T12:17:50;14.30;99.90
26537;DHT22;14204;51.262;5.488;2023-11-19T12:20:23;14.30;99.90
26537;DHT22;14204;51.262;5.488;2023-11-19T12:22:54;14.30;99.90
26537;DHT22;14204;51.262;5.488;2023-11-19T12:25:20;14.30;99.90
26537;DHT22;14204;51.262;5.488;2023-11-19T12:27:48;14.20;99.90
26537;DHT22;14204;51.262;5.488;2023-11-19T12:30:21;14.30;99.90
26537;DHT22;14204;51.262;5.488;2023-11-19T12:32:48;14.30;99.90
26537;DHT22;14204;51.262;5.488;2023-11-19T12:35:14;14.40;99.90
26537;DHT22;14204;51.262;5.488;2023-11-19T12:40:15;14.40;99.90
26537;DHT22;14204;51.262;5.488;2023-11-19T12:42:43;14.40;99.90
26537;DHT22;14204;51.262;5.488;2023-11-19T12:45:09;14.30;99.90
26537;DHT22;14204;51.262;5.488;2023-11-19T12:47:41;14.30;99.90
26537;DHT22;14204;51.262;5.488;2023-11-19T12:50:09;14.30;99.90
26537;DHT22;14204;51.262;5.488;2023-11-19T12:52:38;14.40;99.90
26537;DHT22;14204;51.262;5.488;2023-11-19T12:55:06;14.40;99.90
26537;DHT22;14204;51.262;5.488;2023-11-19T12:57:49;14.50;99.90
26537;DHT22;14204;51.262;5.488;2023-11-19T13:00:19;14.40;99.90
26537;DHT22;14204;51.262;5.488;2023-11-19T13:02:51;14.30;99.90
26537;DHT22;14204;51.262;5.488;2023-11-19T13:05:25;14.20;99.90
26537;DHT22;14204;51.262;5.488;2023-11-19T13:08:01;14.20;99.90
26537;DHT22;14204;51.262;5.488;2023-11-19T13:10:28;14.20;99.90
26537;DHT22;14204;51.262;5.488;2023-11-19T13:13:08;14.10;99.90
26537;DHT22;14204;51.262;5.488;2023-11-19T13:15:34;14.00;99.90
26537;DHT22;14204;51.262;5.488;2023-11-19T13:18:01;14.00;99.90
26537;DHT22;14204;51.262;5.488;2023-11-19T13:20:27;14.10;99.90
26537;DHT22;14204;51.262;5.488;2023-11-19T13:23:01;14.10;99.90
26537;DHT22;14204;51.262;5.488;2023-11-19T13:25:27;14.10;99.90
26537;DHT22;14204;51.262;5.488;2023-11-19T13:27:54;14.00;99.90
26537;DHT22;14204;51.262;5.488;2023-11-19T13:30:20;14.00;99.90
26537;DHT22;14204;51.262;5.488;2023-11-19T13:32:48;14.00;99.90
26537;DHT22;14204;51.262;5.488;2023-11-19T13:35:14;13.90;99.90
26537;DHT22;14204;51.262;5.488;2023-11-19T13:37:40;13.90;99.90
26537;DHT22;14204;51.262;5.488;2023-11-19T13:40:10;13.80;99.90
26537;DHT22;14204;51.262;5.488;2023-11-19T13:42:39;13.90;99.90
26537;DHT22;14204;51.262;5.488;2023-11-19T13:45:15;13.90;99.90
26537;DHT22;14204;51.262;5.488;2023-11-19T13:47:44;13.80;99.90
26537;DHT22;14204;51.262;5.488;2023-11-19T13:50:14;13.80;99.90
26537;DHT22;14204;51.262;5.488;2023-11-19T13:52:42;13.70;99.90
26537;DHT22;14204;51.262;5.488;2023-11-19T13:55:09;13.80;99.90
26537;DHT22;14204;51.262;5.488;2023-11-19T13:57:35;13.80;99.90
26537;DHT22;14204;51.262;5.488;2023-11-19T14:00:03;13.80;99.90
26537;DHT22;14204;51.262;5.488;2023-11-19T14:02:33;13.80;99.90
26537;DHT22;14204;51.262;5.488;2023-11-19T14:04:59;13.80;99.90
26537;DHT22;14204;51.262;5.488;2023-11-19T14:07:25;13.70;99.90
26537;DHT22;14204;51.262;5.488;2023-11-19T14:09:51;13.70;99.90
26537;DHT22;14204;51.262;5.488;2023-11-19T14:12:17;13.70;99.90
26537;DHT22;14204;51.262;5.488;2023-11-19T14:14:43;13.70;99.90
26537;DHT22;14204;51.262;5.488;2023-11-19T14:17:09;13.70;99.90
26537;DHT22;14204;51.262;5.488;2023-11-19T14:19:36;13.70;99.90
26537;DHT22;14204;51.262;5.488;2023-11-19T14:22:03;13.60;99.90
26537;DHT22;14204;51.262;5.488;2023-11-19T14:24:29;13.60;99.90
26537;DHT22;14204;51.262;5.488;2023-11-19T14:26:55;13.70;99.90
26537;DHT22;14204;51.262;5.488;2023-11-19T14:29:23;13.70;99.90
26537;DHT22;14204;51.262;5.488;2023-11-19T14:31:49;13.70;99.90
26537;DHT22;14204;51.262;5.488;2023-11-19T14:34:14;13.70;99.90
26537;DHT22;14204;51.262;5.488;2023-11-19T14:36:41;13.60;99.90
26537;DHT22;14204;51.262;5.488;2023-11-19T14:39:06;13.60;99.90
26537;DHT22;14204;51.262;5.488;2023-11-19T14:41:32;13.70;99.90
26537;DHT22;14204;51.262;5.488;2023-11-19T14:43:58;13.70;99.90
26537;DHT22;14204;51.262;5.488;2023-11-19T14:46:24;13.60;99.90
26537;DHT22;14204;51.262;5.488;2023-11-19T14:48:49;13.60;99.90
26537;DHT22;14204;51.262;5.488;2023-11-19T14:51:15;13.60;99.90
26537;DHT22;14204;51.262;5.488;2023-11-19T14:53:41;13.60;99.90
26537;DHT22;14204;51.262;5.488;2023-11-19T14:56:10;13.50;99.90
26537;DHT22;14204;51.262;5.488;2023-11-19T14:58:36;13.50;99.90
26537;DHT22;14204;51.262;5.488;2023-11-19T15:01:02;13.60;99.90
26537;DHT22;14204;51.262;5.488;2023-11-19T15:03:30;13.60;99.90
26537;DHT22;14204;51.262;5.488;2023-11-19T15:05:56;13.60;99.90
26537;DHT22;14204;51.262;5.488;2023-11-19T15:08:22;13.60;99.90
26537;DHT22;14204;51.262;5.488;2023-11-19T15:10:47;13.60;99.90
26537;DHT22;14204;51.262;5.488;2023-11-19T15:13:13;13.60;99.90
26537;DHT22;14204;51.262;5.488;2023-11-19T15:15:39;13.50;99.90
26537;DHT22;14204;51.262;5.488;2023-11-19T15:18:05;13.60;99.90
26537;DHT22;14204;51.262;5.488;2023-11-19T15:20:31;13.50;99.90
26537;DHT22;14204;51.262;5.488;2023-11-19T15:22:57;13.50;99.90
26537;DHT22;14204;51.262;5.488;2023-11-19T15:25:23;13.60;99.90
26537;DHT22;14204;51.262;5.488;2023-11-19T15:27:50;13.60;99.90
26537;DHT22;14204;51.262;5.488;2023-11-19T15:30:16;13.60;99.90
26537;DHT22;14204;51.262;5.488;2023-11-19T15:32:42;13.50;99.90
26537;DHT22;14204;51.262;5.488;2023-11-19T15:35:09;13.50;99.90
26537;DHT22;14204;51.262;5.488;2023-11-19T15:37:38;13.50;99.90
26537;DHT22;14204;51.262;5.488;2023-11-19T15:40:09;13.40;99.90
26537;DHT22;14204;51.262;5.488;2023-11-19T15:42:38;13.30;99.90
26537;DHT22;14204;51.262;5.488;2023-11-19T15:45:05;13.30;99.90
26537;DHT22;14204;51.262;5.488;2023-11-19T15:47:33;13.40;99.90
26537;DHT22;14204;51.262;5.488;2023-11-19T15:50:01;13.20;99.90